sensor_id;sensor_type;location;lat;lon;timestamp;temperature;humidity
55151;DHT22;41041;43.162;20.538;2022-08-18T09:29:20;691.30;2176.00
55151;DHT22;41041;43.162;20.538;2022-08-18T10:02:16;717.00;2048.00
55151;DHT22;41041;43.162;20.538;2022-08-18T10:19:32;717.50;1843.20
55151;DHT22;41041;43.162;20.538;2022-08-18T10:21:59;717.70;1766.40
55151;DHT22;41041;43.162;20.538;2022-08-18T10:24:52;717.70;1766.40
55151;DHT22;41041;43.162;20.538;2022-08-18T10:30:00;742.40;1817.60
55151;DHT22;41041;43.162;20.538;2022-08-18T10:32:38;742.40;1740.80
55151;DHT22;41041;43.162;20.538;2022-08-18T10:35:52;742.40;1689.60
55151;DHT22;41041;43.162;20.538;2022-08-18T10:37:51;742.50;1715.20
55151;DHT22;41041;43.162;20.538;2022-08-18T10:40:22;742.50;1689.60
55151;DHT22;41041;43.162;20.538;2022-08-18T10:42:55;742.60;1689.60
55151;DHT22;41041;43.162;20.538;2022-08-18T10:45:29;742.70;1664.00
55151;DHT22;41041;43.162;20.538;2022-08-18T10:53:25;742.90;1638.40
55151;DHT22;41041;43.162;20.538;2022-08-18T10:56:22;742.90;1587.20
55151;DHT22;41041;43.162;20.538;2022-08-18T11:05:24;743.20;1510.40
55151;DHT22;41041;43.162;20.538;2022-08-18T11:07:56;743.20;1536.00
55151;DHT22;41041;43.162;20.538;2022-08-18T11:10:46;743.10;1536.00
55151;DHT22;41041;43.162;20.538;2022-08-18T11:18:46;743.30;1510.40
55151;DHT22;41041;43.162;20.538;2022-08-18T11:26:39;768.10;1484.80
55151;DHT22;41041;43.162;20.538;2022-08-18T11:29:33;768.10;1459.20
55151;DHT22;41041;43.162;20.538;2022-08-18T11:32:19;768.20;1433.60
55151;DHT22;41041;43.162;20.538;2022-08-18T11:35:14;768.20;1459.20
55151;DHT22;41041;43.162;20.538;2022-08-18T11:40:32;768.20;1433.60
55151;DHT22;41041;43.162;20.538;2022-08-18T11:45:47;768.30;1433.60
55151;DHT22;41041;43.162;20.538;2022-08-18T11:56:28;768.50;1459.20
55151;DHT22;41041;43.162;20.538;2022-08-18T11:59:01;768.60;1510.40
55151;DHT22;41041;43.162;20.538;2022-08-18T12:01:45;768.60;1433.60
55151;DHT22;41041;43.162;20.538;2022-08-18T12:07:01;768.70;1459.20
55151;DHT22;41041;43.162;20.538;2022-08-18T12:09:41;794.10;1433.60
55151;DHT22;41041;43.162;20.538;2022-08-18T12:12:33;819.70;1459.20
55151;DHT22;41041;43.162;20.538;2022-08-18T12:17:59;820.00;1382.40
55151;DHT22;41041;43.162;20.538;2022-08-18T12:20:24;844.80;1382.40
55151;DHT22;41041;43.162;20.538;2022-08-18T12:22:50;844.90;1356.80
55151;DHT22;41041;43.162;20.538;2022-08-18T12:25:19;845.10;1382.40
55151;DHT22;41041;43.162;20.538;2022-08-18T12:27:45;845.10;1382.40
55151;DHT22;41041;43.162;20.538;2022-08-18T12:30:11;845.20;1356.80
55151;DHT22;41041;43.162;20.538;2022-08-18T12:32:40;845.40;1382.40
55151;DHT22;41041;43.162;20.538;2022-08-18T12:35:07;845.50;1382.40
55151;DHT22;41041;43.162;20.538;2022-08-18T12:37:41;845.50;1408.00
55151;DHT22;41041;43.162;20.538;2022-08-18T12:40:33;845.30;1356.80
55151;DHT22;41041;43.162;20.538;2022-08-18T12:43:10;845.50;1331.20
55151;DHT22;41041;43.162;20.538;2022-08-18T12:46:09;845.30;1356.80
55151;DHT22;41041;43.162;20.538;2022-08-18T12:48:47;845.30;1382.40
55151;DHT22;41041;43.162;20.538;2022-08-18T12:52:04;845.40;1408.00
55151;DHT22;41041;43.162;20.538;2022-08-18T12:54:40;845.40;1331.20
55151;DHT22;41041;43.162;20.538;2022-08-18T12:57:56;845.30;1382.40
55151;DHT22;41041;43.162;20.538;2022-08-18T13:00:45;845.30;1356.80
55151;DHT22;41041;43.162;20.538;2022-08-18T13:03:13;845.50;1382.40
55151;DHT22;41041;43.162;20.538;2022-08-18T13:10:49;844.80;1331.20
55151;DHT22;41041;43.162;20.538;2022-08-18T13:13:19;844.80;1382.40
55151;DHT22;41041;43.162;20.538;2022-08-18T13:15:51;844.80;1408.00
55151;DHT22;41041;43.162;20.538;2022-08-18T13:18:23;820.10;1356.80
55151;DHT22;41041;43.162;20.538;2022-08-18T13:21:11;844.80;1382.40
55151;DHT22;41041;43.162;20.538;2022-08-18T13:23:39;844.80;1382.40
55151;DHT22;41041;43.162;20.538;2022-08-18T13:26:26;845.20;1356.80
55151;DHT22;41041;43.162;20.538;2022-08-18T13:29:02;845.50;1305.60
55151;DHT22;41041;43.162;20.538;2022-08-18T13:31:28;845.60;1280.00
55151;DHT22;41041;43.162;20.538;2022-08-18T13:33:59;845.60;1356.80
55151;DHT22;41041;43.162;20.538;2022-08-18T13:36:35;870.40;1280.00
55151;DHT22;41041;43.162;20.538;2022-08-18T13:46:32;870.60;1254.40
55151;DHT22;41041;43.162;20.538;2022-08-18T14:47:45;921.80;1152.00
55151;DHT22;41041;43.162;20.538;2022-08-18T15:01:03;896.50;1152.00
55151;DHT22;41041;43.162;20.538;2022-08-18T15:07:59;896.50;1126.40
55151;DHT22;41041;43.162;20.538;2022-08-18T15:21:35;896.40;1152.00
55151;DHT22;41041;43.162;20.538;2022-08-18T15:27:53;896.40;1177.60
55151;DHT22;41041;43.162;20.538;2022-08-18T15:33:32;896.60;1177.60
55151;DHT22;41041;43.162;20.538;2022-08-18T15:46:43;896.80;1177.60
55151;DHT22;41041;43.162;20.538;2022-08-18T15:49:34;921.80;1203.20
55151;DHT22;41041;43.162;20.538;2022-08-18T16:13:04;922.00;1075.20
55151;DHT22;41041;43.162;20.538;2022-08-18T16:19:29;922.10;1075.20
55151;DHT22;41041;43.162;20.538;2022-08-18T16:25:40;947.20;1075.20
55151;DHT22;41041;43.162;20.538;2022-08-18T16:38:53;1024.20;972.80
55151;DHT22;41041;43.162;20.538;2022-08-18T16:41:19;1049.90;947.20
55151;DHT22;41041;43.162;20.538;2022-08-18T16:43:46;1050.20;972.80
55151;DHT22;41041;43.162;20.538;2022-08-18T16:46:21;1050.20;947.20
55151;DHT22;41041;43.162;20.538;2022-08-18T16:48:52;1049.90;947.20
55151;DHT22;41041;43.162;20.538;2022-08-18T16:51:20;1049.60;972.80
55151;DHT22;41041;43.162;20.538;2022-08-18T16:53:47;1024.10;998.40
55151;DHT22;41041;43.162;20.538;2022-08-18T16:56:19;998.90;1049.60
55151;DHT22;41041;43.162;20.538;2022-08-18T16:58:45;973.70;1049.60
55151;DHT22;41041;43.162;20.538;2022-08-18T17:01:30;973.10;1126.40
55151;DHT22;41041;43.162;20.538;2022-08-18T17:04:18;947.60;1177.60
55151;DHT22;41041;43.162;20.538;2022-08-18T17:06:44;922.40;1254.40
55151;DHT22;41041;43.162;20.538;2022-08-18T17:09:10;921.80;1280.00
55151;DHT22;41041;43.162;20.538;2022-08-18T17:11:37;896.30;1280.00
55151;DHT22;41041;43.162;20.538;2022-08-18T17:14:04;870.80;1356.80
55151;DHT22;41041;43.162;20.538;2022-08-18T17:16:33;845.40;1356.80
55151;DHT22;41041;43.162;20.538;2022-08-18T17:18:59;820.10;1459.20
55151;DHT22;41041;43.162;20.538;2022-08-18T17:21:27;819.40;1433.60
55151;DHT22;41041;43.162;20.538;2022-08-18T17:23:55;794.40;1433.60
55151;DHT22;41041;43.162;20.538;2022-08-18T17:29:21;793.60;1484.80
55151;DHT22;41041;43.162;20.538;2022-08-18T17:32:01;768.60;1484.80
55151;DHT22;41041;43.162;20.538;2022-08-18T17:34:35;768.30;1459.20
55151;DHT22;41041;43.162;20.538;2022-08-18T17:37:07;768.00;1536.00
55151;DHT22;41041;43.162;20.538;2022-08-18T17:39:38;743.10;1561.60
55151;DHT22;41041;43.162;20.538;2022-08-18T17:42:06;743.00;1561.60
55151;DHT22;41041;43.162;20.538;2022-08-18T17:44:59;742.80;1587.20
55151;DHT22;41041;43.162;20.538;2022-08-18T17:47:31;742.60;1587.20
55151;DHT22;41041;43.162;20.538;2022-08-18T17:50:05;742.40;1612.80
55151;DHT22;41041;43.162;20.538;2022-08-18T17:52:59;717.70;1612.80
55151;DHT22;41041;43.162;20.538;2022-08-18T17:55:30;717.50;1587.20
55151;DHT22;41041;43.162;20.538;2022-08-18T17:58:08;717.50;1612.80
55151;DHT22;41041;43.162;20.538;2022-08-18T18:00:35;717.30;1561.60
55151;DHT22;41041;43.162;20.538;2022-08-18T18:03:01;717.10;1587.20
55151;DHT22;41041;43.162;20.538;2022-08-18T18:05:35;717.10;1612.80
55151;DHT22;41041;43.162;20.538;2022-08-18T18:08:02;716.80;1664.00
55151;DHT22;41041;43.162;20.538;2022-08-18T18:10:36;692.10;1638.40
55151;DHT22;41041;43.162;20.538;2022-08-18T18:15:55;692.00;1664.00
55151;DHT22;41041;43.162;20.538;2022-08-18T18:23:53;691.70;1715.20
55151;DHT22;41041;43.162;20.538;2022-08-18T18:26:32;691.50;1740.80
55151;DHT22;41041;43.162;20.538;2022-08-18T18:29:15;691.30;1740.80
55151;DHT22;41041;43.162;20.538;2022-08-18T18:34:37;666.50;1740.80
55151;DHT22;41041;43.162;20.538;2022-08-18T18:37:25;666.40;1766.40
55151;DHT22;41041;43.162;20.538;2022-08-18T18:39:57;666.20;1766.40
55151;DHT22;41041;43.162;20.538;2022-08-18T18:42:32;666.20;1792.00
55151;DHT22;41041;43.162;20.538;2022-08-18T18:53:13;665.90;1817.60
55151;DHT22;41041;43.162;20.538;2022-08-18T18:56:00;665.80;1843.20
55151;DHT22;41041;43.162;20.538;2022-08-18T19:01:02;640.90;1843.20
55151;DHT22;41041;43.162;20.538;2022-08-18T19:03:55;640.90;1843.20
55151;DHT22;41041;43.162;20.538;2022-08-18T21:19:01;589.20;2150.40
55151;DHT22;41041;43.162;20.538;2022-08-18T21:21:37;589.10;2176.00
55151;DHT22;41041;43.162;20.538;2022-08-18T21:24:28;589.00;2176.00
55151;DHT22;41041;43.162;20.538;2022-08-18T21:30:18;588.80;2227.20
55151;DHT22;41041;43.162;20.538;2022-08-18T21:32:44;564.00;2227.20
55151;DHT22;41041;43.162;20.538;2022-08-18T21:35:31;563.90;2252.80
55151;DHT22;41041;43.162;20.538;2022-08-18T21:38:04;563.70;2278.40
55151;DHT22;41041;43.162;20.538;2022-08-18T21:40:39;563.90;2278.40
55151;DHT22;41041;43.162;20.538;2022-08-18T21:43:12;563.60;2304.00
55151;DHT22;41041;43.162;20.538;2022-08-18T21:45:49;563.40;2329.60
55151;DHT22;41041;43.162;20.538;2022-08-18T21:48:21;563.30;2355.20
55151;DHT22;41041;43.162;20.538;2022-08-18T21:50:57;563.40;2329.60
55151;DHT22;41041;43.162;20.538;2022-08-18T21:53:26;563.50;2329.60
55151;DHT22;41041;43.162;20.538;2022-08-18T21:56:03;563.50;2329.60
55151;DHT22;41041;43.162;20.538;2022-08-18T21:59:02;563.20;2355.20
55151;DHT22;41041;43.162;20.538;2022-08-18T22:01:50;538.40;2355.20
55151;DHT22;41041;43.162;20.538;2022-08-18T22:07:49;563.30;2355.20
55151;DHT22;41041;43.162;20.538;2022-08-18T22:13:21;563.20;2380.80
